createdAt,value
2022-12-18T00:00:27.707Z,-9.03
2022-12-18T00:01:37.124Z,-8.97
2022-12-18T00:02:18.738Z,-8.97
2022-12-18T00:03:00.648Z,-8.96
2022-12-18T00:03:42.866Z,-8.96
2022-12-18T00:04:26.577Z,-8.98
2022-12-18T00:05:08.326Z,-8.97
2022-12-18T00:05:51.495Z,-9.11
2022-12-18T00:06:33.730Z,-9.02
2022-12-18T00:07:15.324Z,-8.94
2022-12-18T00:07:56.949Z,-8.96
2022-12-18T00:08:39.439Z,-9.08
2022-12-18T00:09:21.287Z,-9.01
2022-12-18T00:10:06.994Z,-9.47
2022-12-18T00:10:48.603Z,-9.35
2022-12-18T00:11:31.621Z,-9.08
2022-12-18T00:12:57.399Z,-9.11
2022-12-18T00:13:39.505Z,-9.08
2022-12-18T00:14:21.303Z,-9.12
2022-12-18T00:15:03.018Z,-9.22
2022-12-18T00:15:44.664Z,-9.52
2022-12-18T00:16:28.341Z,-9.23
2022-12-18T00:17:09.968Z,-9.19
2022-12-18T00:17:51.638Z,-9.18
2022-12-18T00:18:33.636Z,-9.23
2022-12-18T00:19:15.904Z,-9.18
2022-12-18T00:19:57.500Z,-9.38
2022-12-18T00:20:40.896Z,-9.17
2022-12-18T00:21:22.894Z,-9.15
2022-12-18T00:22:04.597Z,-9.25
2022-12-18T00:22:46.212Z,-9.14
2022-12-18T00:23:28.530Z,-9.17
2022-12-18T00:24:11.436Z,-9.08
2022-12-18T00:24:53.058Z,-9.49
2022-12-18T00:25:35.788Z,-9.36
2022-12-18T00:26:29.306Z,-9.02
2022-12-18T00:27:14.042Z,-9.22
2022-12-18T00:27:56.179Z,-8.98
2022-12-18T00:28:38.077Z,-9.00
2022-12-18T00:29:20.041Z,-8.96
2022-12-18T00:30:01.670Z,-9.00
2022-12-18T00:30:43.365Z,-8.94
2022-12-18T00:31:26.197Z,-9.02
2022-12-18T00:32:08.526Z,-9.10
2022-12-18T00:32:50.101Z,-8.90
2022-12-18T00:33:32.203Z,-8.91
2022-12-18T00:34:14.394Z,-8.91
2022-12-18T00:34:58.481Z,-8.94
2022-12-18T00:35:40.112Z,-9.00
2022-12-18T00:36:25.290Z,-8.94
2022-12-18T00:37:07.312Z,-8.94
2022-12-18T00:37:48.885Z,-9.07
2022-12-18T00:38:30.694Z,-8.96
2022-12-18T00:39:13.198Z,-9.21
2022-12-18T00:39:54.758Z,-8.96
2022-12-18T00:40:36.320Z,-9.12
2022-12-18T00:41:38.997Z,-8.96
2022-12-18T00:42:39.660Z,-9.26
2022-12-18T00:43:21.334Z,-9.01
2022-12-18T00:44:03.811Z,-9.53
2022-12-18T00:44:45.388Z,-9.12
2022-12-18T00:45:32.015Z,-9.03
2022-12-18T00:46:13.772Z,-9.02
2022-12-18T00:46:55.503Z,-9.15
2022-12-18T00:47:37.134Z,-9.03
2022-12-18T00:48:18.930Z,-9.11
2022-12-18T00:49:00.550Z,-9.05
2022-12-18T00:49:42.217Z,-9.12
2022-12-18T00:50:25.525Z,-9.09
2022-12-18T00:51:07.718Z,-9.12
2022-12-18T00:51:49.548Z,-9.15
2022-12-18T00:52:31.235Z,-9.04
2022-12-18T00:53:13.229Z,-9.03
2022-12-18T00:53:55.072Z,-9.04
2022-12-18T00:54:36.659Z,-9.13
2022-12-18T00:55:19.000Z,-9.01
2022-12-18T00:56:02.269Z,-8.97
2022-12-18T00:56:50.970Z,-9.07
2022-12-18T00:57:32.558Z,-9.04
2022-12-18T00:58:16.174Z,-9.05
2022-12-18T00:58:57.997Z,-8.87
2022-12-18T00:59:39.649Z,-8.92
2022-12-18T01:00:21.901Z,-8.87
2022-12-18T01:01:05.606Z,-9.04
2022-12-18T01:01:49.994Z,-8.98
2022-12-18T01:02:31.890Z,-9.03
2022-12-18T01:03:15.012Z,-8.96
2022-12-18T01:04:01.043Z,-8.93
2022-12-18T01:04:42.646Z,-8.93
2022-12-18T01:05:24.281Z,-8.95
2022-12-18T01:06:08.307Z,-9.23
2022-12-18T01:06:49.932Z,-9.01
2022-12-18T01:07:31.664Z,-9.18
2022-12-18T01:08:13.317Z,-9.14
2022-12-18T01:08:57.405Z,-9.12
2022-12-18T01:09:38.962Z,-9.16
2022-12-18T01:10:21.059Z,-9.19
2022-12-18T01:11:16.000Z,-9.26
2022-12-18T01:11:57.550Z,-9.21
2022-12-18T01:12:39.741Z,-9.37
2022-12-18T01:13:21.354Z,-9.37
2022-12-18T01:14:05.692Z,-9.16
2022-12-18T01:14:47.366Z,-9.66
2022-12-18T01:15:29.875Z,-9.28
2022-12-18T01:16:15.801Z,-9.27
2022-12-18T01:16:57.393Z,-9.29
2022-12-18T01:17:39.205Z,-9.30
2022-12-18T01:18:20.809Z,-9.22
2022-12-18T01:19:02.506Z,-9.36
2022-12-18T01:19:44.157Z,-9.25
2022-12-18T01:20:25.811Z,-9.28
2022-12-18T01:21:09.186Z,-9.23
2022-12-18T01:21:52.373Z,-9.25
2022-12-18T01:22:33.924Z,-9.51
2022-12-18T01:23:18.096Z,-9.14
2022-12-18T01:23:59.720Z,-9.15
2022-12-18T01:24:41.282Z,-9.07
2022-12-18T01:25:22.862Z,-9.11
2022-12-18T01:26:14.678Z,-8.98
2022-12-18T01:26:58.030Z,-9.20
2022-12-18T01:27:39.670Z,-9.03
2022-12-18T01:28:21.226Z,-9.15
2022-12-18T01:29:02.846Z,-9.00
2022-12-18T01:29:44.500Z,-9.00
2022-12-18T01:30:26.294Z,-8.91
2022-12-18T01:31:34.760Z,-8.86
2022-12-18T01:32:17.645Z,-9.30
2022-12-18T01:32:59.233Z,-8.91
2022-12-18T01:33:41.461Z,-9.01
2022-12-18T01:34:24.770Z,-8.85
2022-12-18T01:35:07.911Z,-8.82
2022-12-18T01:35:49.560Z,-8.80
2022-12-18T01:36:34.518Z,-8.74
2022-12-18T01:37:16.107Z,-8.68
2022-12-18T01:38:00.643Z,-8.90
2022-12-18T01:38:43.474Z,-8.71
2022-12-18T01:39:25.038Z,-8.95
2022-12-18T01:40:07.560Z,-8.95
2022-12-18T01:40:49.098Z,-8.77
2022-12-18T01:41:52.178Z,-8.79
2022-12-18T01:42:36.851Z,-8.95
2022-12-18T01:43:18.407Z,-8.80
2022-12-18T01:44:01.174Z,-8.82
2022-12-18T01:45:05.910Z,-8.91
2022-12-18T01:45:47.844Z,-8.85
2022-12-18T01:46:29.464Z,-8.84
2022-12-18T01:47:18.226Z,-9.00
2022-12-18T01:48:07.985Z,-9.04
2022-12-18T01:48:56.321Z,-8.92
2022-12-18T01:49:39.502Z,-9.05
2022-12-18T01:50:31.792Z,-8.90
2022-12-18T01:51:13.698Z,-9.38
2022-12-18T01:51:55.837Z,-8.92
2022-12-18T01:52:42.744Z,-8.93
2022-12-18T01:53:24.830Z,-8.94
2022-12-18T01:54:06.476Z,-9.02
2022-12-18T01:54:51.952Z,-8.95
2022-12-18T01:55:49.157Z,-9.60
2022-12-18T01:56:30.781Z,-9.07
2022-12-18T01:57:12.430Z,-8.93
2022-12-18T01:57:56.975Z,-9.14
2022-12-18T01:58:52.511Z,-8.96
2022-12-18T01:59:35.690Z,-8.97
2022-12-18T02:00:20.574Z,-8.98
2022-12-18T02:01:02.316Z,-9.05
2022-12-18T02:01:44.093Z,-9.08
2022-12-18T02:02:28.759Z,-9.03
2022-12-18T02:03:10.606Z,-9.05
2022-12-18T02:03:53.045Z,-9.07
2022-12-18T02:04:34.927Z,-9.07
2022-12-18T02:05:23.513Z,-9.11
2022-12-18T02:06:11.901Z,-9.10
2022-12-18T02:07:32.173Z,-9.03
2022-12-18T02:08:28.191Z,-9.80
2022-12-18T02:09:13.940Z,-9.11
2022-12-18T02:09:59.864Z,-9.13
2022-12-18T02:10:55.131Z,-9.26
2022-12-18T02:12:08.760Z,-9.03
2022-12-18T02:13:04.273Z,-9.36
2022-12-18T02:13:52.350Z,-8.93
2022-12-18T02:14:43.908Z,-8.98
2022-12-18T02:15:34.300Z,-9.00
2022-12-18T02:16:21.638Z,-8.87
2022-12-18T02:17:15.939Z,-8.94
2022-12-18T02:18:06.292Z,-8.92
2022-12-18T02:18:56.903Z,-8.97
2022-12-18T02:19:44.139Z,-9.01
2022-12-18T02:20:34.187Z,-8.98
2022-12-18T02:21:35.337Z,-9.30
2022-12-18T02:22:28.156Z,-8.96
2022-12-18T02:23:48.152Z,-9.14
2022-12-18T02:24:49.190Z,-8.92
2022-12-18T02:26:06.975Z,-8.86
2022-12-18T02:26:56.880Z,-8.91
2022-12-18T02:27:46.122Z,-8.96
2022-12-18T02:28:36.145Z,-8.76
2022-12-18T02:29:30.541Z,-8.82
2022-12-18T02:30:13.194Z,-8.91
2022-12-18T02:30:58.759Z,-8.85
2022-12-18T02:31:46.206Z,-8.72
2022-12-18T02:32:31.805Z,-8.80
2022-12-18T02:33:15.102Z,-8.79
2022-12-18T02:34:03.617Z,-8.68
2022-12-18T02:34:51.981Z,-8.85
2022-12-18T02:35:35.519Z,-8.74
2022-12-18T02:36:19.779Z,-8.81
2022-12-18T02:37:07.643Z,-8.77
2022-12-18T02:37:49.895Z,-8.80
2022-12-18T02:38:32.579Z,-8.87
2022-12-18T02:39:23.200Z,-8.91
2022-12-18T02:40:16.469Z,-8.84
2022-12-18T02:40:59.410Z,-9.07
2022-12-18T02:41:42.562Z,-8.88
2022-12-18T02:42:25.001Z,-9.40
2022-12-18T02:43:12.697Z,-8.90
2022-12-18T02:43:59.716Z,-8.98
2022-12-18T02:44:50.914Z,-8.97
2022-12-18T02:45:35.748Z,-9.27
2022-12-18T02:46:31.808Z,-9.20
2022-12-18T02:47:19.237Z,-9.12
2022-12-18T02:48:03.798Z,-9.15
2022-12-18T02:48:48.227Z,-9.41
2022-12-18T02:49:41.335Z,-8.89
2022-12-18T02:50:38.858Z,-8.97
2022-12-18T02:51:39.594Z,-8.98
2022-12-18T02:52:33.566Z,-8.85
2022-12-18T02:53:33.639Z,-8.89
2022-12-18T02:54:40.095Z,-9.01
2022-12-18T02:55:45.700Z,-8.83
2022-12-18T02:56:45.188Z,-9.08
2022-12-18T02:57:37.750Z,-8.83
2022-12-18T02:58:58.847Z,-8.82
2022-12-18T03:00:06.850Z,-8.99
2022-12-18T03:01:14.891Z,-8.89
2022-12-18T03:02:22.407Z,-8.92
2022-12-18T03:03:17.276Z,-8.99
2022-12-18T03:04:05.590Z,-8.95
2022-12-18T03:05:16.889Z,-8.86
2022-12-18T03:06:11.761Z,-8.80
2022-12-18T03:07:09.563Z,-8.77
2022-12-18T03:08:09.829Z,-8.75
2022-12-18T03:08:59.729Z,-8.91
2022-12-18T03:09:48.782Z,-8.70
2022-12-18T03:10:33.131Z,-8.73
2022-12-18T03:11:16.190Z,-8.81
2022-12-18T03:12:40.241Z,-8.84
2022-12-18T03:13:37.215Z,-8.94
2022-12-18T03:14:23.072Z,-9.33
2022-12-18T03:15:18.058Z,-8.98
2022-12-18T03:16:03.139Z,-8.89
2022-12-18T03:16:47.817Z,-8.97
2022-12-18T03:17:32.980Z,-8.85
2022-12-18T03:18:19.953Z,-9.17
2022-12-18T03:19:25.295Z,-8.97
2022-12-18T03:20:14.138Z,-9.03
2022-12-18T03:21:00.011Z,-9.22
2022-12-18T03:21:46.319Z,-9.20
2022-12-18T03:22:34.708Z,-9.34
2022-12-18T03:23:26.289Z,-9.29
2022-12-18T03:24:10.334Z,-9.18
2022-12-18T03:24:53.669Z,-9.39
2022-12-18T03:25:40.581Z,-9.19
2022-12-18T03:26:26.318Z,-9.18
2022-12-18T03:27:16.980Z,-9.60
2022-12-18T03:28:04.234Z,-9.26
2022-12-18T03:28:52.116Z,-9.15
2022-12-18T03:29:55.076Z,-9.20
2022-12-18T03:30:44.890Z,-9.34
2022-12-18T03:31:30.558Z,-9.04
2022-12-18T03:32:20.200Z,-9.00
2022-12-18T03:33:07.590Z,-8.97
2022-12-18T03:33:58.389Z,-9.02
2022-12-18T03:34:52.838Z,-8.90
2022-12-18T03:35:41.162Z,-8.92
2022-12-18T03:36:23.740Z,-8.99
2022-12-18T03:37:07.844Z,-8.73
2022-12-18T03:37:51.173Z,-8.72
2022-12-18T03:38:33.360Z,-8.69
2022-12-18T03:39:15.421Z,-8.67
2022-12-18T03:40:03.218Z,-8.85
2022-12-18T03:41:05.185Z,-8.59
2022-12-18T03:42:16.046Z,-8.62
2022-12-18T03:43:17.648Z,-8.71
2022-12-18T03:44:16.916Z,-8.47
2022-12-18T03:45:22.701Z,-8.46
2022-12-18T03:46:23.070Z,-8.79
2022-12-18T03:47:08.877Z,-8.39
2022-12-18T03:48:17.094Z,-8.35
2022-12-18T03:49:09.893Z,-8.38
2022-12-18T03:49:51.781Z,-8.26
2022-12-18T03:50:54.952Z,-8.59
2022-12-18T03:51:36.660Z,-8.23
2022-12-18T03:52:26.897Z,-8.20
2022-12-18T03:53:24.077Z,-8.30
2022-12-18T03:54:09.833Z,-8.22
2022-12-18T03:54:59.067Z,-8.30
2022-12-18T03:55:41.739Z,-8.21
2022-12-18T03:56:27.592Z,-8.29
2022-12-18T03:57:22.448Z,-8.39
2022-12-18T03:58:09.221Z,-8.19
2022-12-18T03:59:06.913Z,-8.20
2022-12-18T03:59:55.384Z,-8.11
2022-12-18T04:00:40.910Z,-8.11
2022-12-18T04:01:32.991Z,-8.17
2022-12-18T04:02:18.362Z,-8.10
2022-12-18T04:03:02.839Z,-8.15
2022-12-18T04:03:51.704Z,-8.07
2022-12-18T04:04:38.881Z,-8.18
2022-12-18T04:05:23.515Z,-8.10
2022-12-18T04:06:07.197Z,-8.09
2022-12-18T04:06:51.336Z,-8.01
2022-12-18T04:07:34.759Z,-8.05
2022-12-18T04:08:16.435Z,-7.94
2022-12-18T04:09:06.491Z,-7.79
2022-12-18T04:09:57.480Z,-7.74
2022-12-18T04:10:39.422Z,-7.73
2022-12-18T04:11:21.080Z,-7.72
2022-12-18T04:12:03.704Z,-7.84
2022-12-18T04:12:45.440Z,-8.05
2022-12-18T04:13:32.720Z,-7.70
2022-12-18T04:14:18.311Z,-7.82
2022-12-18T04:15:03.107Z,-7.70
2022-12-18T04:15:44.815Z,-7.71
2022-12-18T04:16:30.148Z,-7.92
2022-12-18T04:17:15.677Z,-8.08
2022-12-18T04:17:57.510Z,-7.68
2022-12-18T04:18:41.974Z,-7.74
2022-12-18T04:19:24.050Z,-7.66
2022-12-18T04:20:07.918Z,-7.63
2022-12-18T04:20:50.341Z,-7.78
2022-12-18T04:21:32.893Z,-8.17
2022-12-18T04:22:15.231Z,-7.64
2022-12-18T04:23:01.121Z,-7.66
2022-12-18T04:23:43.341Z,-7.70
2022-12-18T04:24:25.213Z,-7.68
2022-12-18T04:25:17.793Z,-7.68
2022-12-18T04:26:14.377Z,-7.73
2022-12-18T04:27:08.286Z,-7.88
2022-12-18T04:27:56.154Z,-7.95
2022-12-18T04:28:37.934Z,-7.61
2022-12-18T04:29:19.639Z,-7.76
2022-12-18T04:30:02.132Z,-7.72
2022-12-18T04:30:45.356Z,-7.58
2022-12-18T04:31:27.335Z,-7.71
2022-12-18T04:32:09.386Z,-7.57
2022-12-18T04:32:52.570Z,-7.56
2022-12-18T04:33:35.331Z,-7.94
2022-12-18T04:34:17.669Z,-7.74
2022-12-18T04:35:07.501Z,-7.56
2022-12-18T04:35:50.191Z,-7.54
2022-12-18T04:36:32.820Z,-7.52
2022-12-18T04:37:14.527Z,-7.50
2022-12-18T04:37:56.170Z,-7.55
2022-12-18T04:38:37.787Z,-7.47
2022-12-18T04:39:23.634Z,-7.55
2022-12-18T04:40:11.156Z,-7.42
2022-12-18T04:40:57.041Z,-7.48
2022-12-18T04:41:42.154Z,-7.41
2022-12-18T04:42:24.761Z,-7.57
2022-12-18T04:43:06.565Z,-7.37
2022-12-18T04:43:48.244Z,-7.44
2022-12-18T04:44:29.974Z,-7.36
2022-12-18T04:45:11.637Z,-7.35
2022-12-18T04:45:53.233Z,-7.93
2022-12-18T04:46:34.864Z,-7.62
2022-12-18T04:47:16.517Z,-7.52
2022-12-18T04:47:59.409Z,-7.49
2022-12-18T04:48:41.258Z,-7.41
2022-12-18T04:49:22.958Z,-7.40
2022-12-18T04:50:05.093Z,-7.40
2022-12-18T04:50:47.979Z,-8.00
2022-12-18T04:51:29.602Z,-7.39
2022-12-18T04:52:11.232Z,-7.47
2022-12-18T04:52:53.496Z,-7.54
2022-12-18T04:53:35.269Z,-7.37
2022-12-18T04:54:16.874Z,-7.45
2022-12-18T04:54:58.484Z,-7.20
2022-12-18T04:55:40.062Z,-8.10
2022-12-18T04:56:22.363Z,-7.14
2022-12-18T04:57:04.090Z,-7.11
2022-12-18T04:57:45.727Z,-7.49
2022-12-18T04:58:27.327Z,-7.10
2022-12-18T04:59:08.893Z,-7.14
2022-12-18T04:59:50.497Z,-7.14
2022-12-18T05:00:32.089Z,-6.97
2022-12-18T05:01:16.246Z,-7.16
2022-12-18T05:01:58.002Z,-7.00
2022-12-18T05:02:40.039Z,-7.04
2022-12-18T05:03:21.763Z,-7.17
2022-12-18T05:04:04.109Z,-7.01
2022-12-18T05:04:45.831Z,-6.99
2022-12-18T05:05:28.032Z,-6.94
2022-12-18T05:06:10.195Z,-6.91
2022-12-18T05:06:51.916Z,-6.91
2022-12-18T05:07:33.505Z,-6.89
2022-12-18T05:08:15.129Z,-7.07
2022-12-18T05:08:56.739Z,-6.97
2022-12-18T05:09:38.294Z,-6.94
2022-12-18T05:10:19.861Z,-6.98
2022-12-18T05:11:07.843Z,-7.06
2022-12-18T05:11:49.507Z,-6.93
2022-12-18T05:12:32.196Z,-7.12
2022-12-18T05:13:13.775Z,-6.93
2022-12-18T05:13:58.145Z,-6.88
2022-12-18T05:14:39.842Z,-6.88
2022-12-18T05:15:21.405Z,-7.78
2022-12-18T05:16:03.704Z,-6.89
2022-12-18T05:16:45.410Z,-6.93
2022-12-18T05:17:27.466Z,-7.07
2022-12-18T05:18:09.498Z,-7.01
2022-12-18T05:18:51.199Z,-7.06
2022-12-18T05:19:32.797Z,-7.11
2022-12-18T05:20:14.805Z,-7.18
2022-12-18T05:20:56.488Z,-7.25
2022-12-18T05:21:38.077Z,-7.20
2022-12-18T05:22:19.795Z,-7.23
2022-12-18T05:23:01.637Z,-7.37
2022-12-18T05:23:43.703Z,-7.67
2022-12-18T05:24:25.693Z,-7.39
2022-12-18T05:25:07.570Z,-7.36
2022-12-18T05:26:03.363Z,-7.36
2022-12-18T05:26:44.965Z,-7.56
2022-12-18T05:27:26.520Z,-7.41
2022-12-18T05:28:08.105Z,-7.48
2022-12-18T05:28:49.678Z,-7.48
2022-12-18T05:29:31.276Z,-7.48
2022-12-18T05:30:14.061Z,-7.54
2022-12-18T05:30:58.317Z,-7.48
2022-12-18T05:31:40.211Z,-7.61
2022-12-18T05:32:21.853Z,-8.08
2022-12-18T05:33:03.488Z,-7.49
2022-12-18T05:33:45.300Z,-7.69
2022-12-18T05:34:26.845Z,-7.51
2022-12-18T05:35:10.287Z,-7.61
2022-12-18T05:35:56.873Z,-7.69
2022-12-18T05:36:38.439Z,-7.72
2022-12-18T05:37:20.009Z,-7.53
2022-12-18T05:38:01.633Z,-7.56
2022-12-18T05:38:43.420Z,-7.70
2022-12-18T05:39:25.023Z,-7.61
2022-12-18T05:40:07.323Z,-7.65
2022-12-18T05:40:50.588Z,-7.84
2022-12-18T05:41:32.218Z,-7.88
2022-12-18T05:42:13.844Z,-7.62
2022-12-18T05:42:55.431Z,-7.90
2022-12-18T05:43:39.119Z,-7.65
2022-12-18T05:44:21.021Z,-8.06
2022-12-18T05:45:02.861Z,-7.67
2022-12-18T05:45:44.844Z,-7.85
2022-12-18T05:46:27.253Z,-7.75
2022-12-18T05:47:08.838Z,-7.78
2022-12-18T05:47:50.455Z,-7.86
2022-12-18T05:48:32.058Z,-7.86
2022-12-18T05:49:16.429Z,-7.62
2022-12-18T05:49:58.177Z,-7.54
2022-12-18T05:50:41.814Z,-7.81
2022-12-18T05:51:23.813Z,-7.51
2022-12-18T05:52:05.668Z,-7.79
2022-12-18T05:52:47.310Z,-7.55
2022-12-18T05:53:28.858Z,-7.57
2022-12-18T05:54:10.448Z,-7.59
2022-12-18T05:54:52.042Z,-8.41
2022-12-18T05:55:37.608Z,-7.70
2022-12-18T05:56:21.656Z,-7.85
2022-12-18T05:57:03.358Z,-7.71
2022-12-18T05:57:44.971Z,-7.97
2022-12-18T05:58:27.614Z,-7.86
2022-12-18T05:59:09.686Z,-7.72
2022-12-18T05:59:51.262Z,-7.68
2022-12-18T06:00:35.770Z,-7.72
2022-12-18T06:01:20.338Z,-7.69
2022-12-18T06:02:02.182Z,-7.78
2022-12-18T06:02:47.910Z,-8.01
2022-12-18T06:03:33.875Z,-7.98
2022-12-18T06:04:15.927Z,-7.69
2022-12-18T06:04:57.532Z,-8.03
2022-12-18T06:05:41.688Z,-7.95
2022-12-18T06:06:26.732Z,-7.74
2022-12-18T06:07:08.341Z,-7.74
2022-12-18T06:07:49.985Z,-7.80
2022-12-18T06:08:31.719Z,-7.74
2022-12-18T06:09:13.553Z,-7.84
2022-12-18T06:09:55.146Z,-7.78
2022-12-18T06:10:37.397Z,-7.82
2022-12-18T06:11:22.593Z,-7.73
2022-12-18T06:12:04.456Z,-7.86
2022-12-18T06:12:46.142Z,-7.73
2022-12-18T06:13:27.744Z,-7.72
2022-12-18T06:14:10.850Z,-7.92
2022-12-18T06:14:52.417Z,-7.82
2022-12-18T06:15:34.176Z,-7.85
2022-12-18T06:16:15.910Z,-7.71
2022-12-18T06:16:57.619Z,-7.75
2022-12-18T06:17:39.268Z,-7.69
2022-12-18T06:18:21.022Z,-7.91
2022-12-18T06:19:05.848Z,-7.70
2022-12-18T06:19:47.657Z,-7.81
2022-12-18T06:20:33.914Z,-7.70
2022-12-18T06:21:15.736Z,-7.71
2022-12-18T06:21:59.827Z,-7.72
2022-12-18T06:22:41.634Z,-8.01
2022-12-18T06:23:24.080Z,-7.72
2022-12-18T06:24:06.165Z,-7.91
2022-12-18T06:24:47.743Z,-7.88
2022-12-18T06:25:29.371Z,-7.73
2022-12-18T06:26:13.301Z,-7.74
2022-12-18T06:26:54.929Z,-7.79
2022-12-18T06:27:36.555Z,-7.75
2022-12-18T06:28:18.328Z,-7.89
2022-12-18T06:29:00.396Z,-8.43
2022-12-18T06:29:42.034Z,-8.24
2022-12-18T06:30:23.897Z,-7.77
2022-12-18T06:31:07.032Z,-8.25
2022-12-18T06:31:48.876Z,-7.99
2022-12-18T06:32:30.656Z,-8.29
2022-12-18T06:33:12.243Z,-7.83
2022-12-18T06:33:53.801Z,-7.77
2022-12-18T06:34:37.606Z,-7.77
2022-12-18T06:35:19.209Z,-7.76
2022-12-18T06:36:13.586Z,-7.76
2022-12-18T06:36:55.217Z,-8.00
2022-12-18T06:37:36.946Z,-8.20
2022-12-18T06:38:18.676Z,-8.09
2022-12-18T06:39:00.374Z,-7.78
2022-12-18T06:39:41.986Z,-7.87
2022-12-18T06:40:23.582Z,-8.23
2022-12-18T06:41:10.942Z,-7.75
2022-12-18T06:41:52.672Z,-7.77
2022-12-18T06:42:34.377Z,-7.77
2022-12-18T06:43:15.931Z,-7.62
2022-12-18T06:44:00.100Z,-7.72
2022-12-18T06:44:41.928Z,-7.74
2022-12-18T06:45:23.482Z,-7.53
2022-12-18T06:46:05.944Z,-7.53
2022-12-18T06:46:47.635Z,-7.59
2022-12-18T06:47:29.248Z,-7.70
2022-12-18T06:48:10.801Z,-7.57
2022-12-18T06:48:52.410Z,-7.79
2022-12-18T06:49:34.221Z,-7.80
2022-12-18T06:50:15.860Z,-7.55
2022-12-18T06:50:57.518Z,-7.57
2022-12-18T06:51:39.325Z,-7.57
2022-12-18T06:52:21.025Z,-7.82
2022-12-18T06:53:02.599Z,-7.77
2022-12-18T06:53:44.381Z,-8.06
2022-12-18T06:54:26.074Z,-7.62
2022-12-18T06:55:12.401Z,-7.61
2022-12-18T06:56:06.435Z,-7.66
2022-12-18T06:56:50.924Z,-7.75
2022-12-18T06:57:32.676Z,-7.71
2022-12-18T06:58:14.368Z,-7.77
2022-12-18T06:58:56.041Z,-7.72
2022-12-18T06:59:37.667Z,-7.84
2022-12-18T07:00:19.334Z,-7.68
2022-12-18T07:01:02.985Z,-7.66
2022-12-18T07:01:44.948Z,-7.62
2022-12-18T07:02:27.038Z,-8.07
2022-12-18T07:03:10.800Z,-7.72
2022-12-18T07:03:55.214Z,-7.61
2022-12-18T07:04:36.937Z,-7.73
2022-12-18T07:05:18.483Z,-7.61
2022-12-18T07:06:00.355Z,-7.65
2022-12-18T07:06:41.972Z,-7.63
2022-12-18T07:07:23.541Z,-7.58
2022-12-18T07:08:05.132Z,-7.66
2022-12-18T07:08:49.874Z,-7.68
2022-12-18T07:09:31.420Z,-7.59
2022-12-18T07:10:13.101Z,-7.62
2022-12-18T07:10:56.383Z,-7.61
2022-12-18T07:11:38.286Z,-7.67
2022-12-18T07:12:20.009Z,-7.58
2022-12-18T07:13:01.710Z,-7.72
2022-12-18T07:13:43.943Z,-7.58
2022-12-18T07:14:25.539Z,-7.69
2022-12-18T07:15:07.909Z,-7.57
2022-12-18T07:15:49.690Z,-7.54
2022-12-18T07:16:31.410Z,-7.61
2022-12-18T07:17:13.200Z,-7.56
2022-12-18T07:17:54.926Z,-7.54
2022-12-18T07:18:36.907Z,-7.55
2022-12-18T07:19:18.596Z,-7.59
2022-12-18T07:20:01.979Z,-7.87
2022-12-18T07:20:43.728Z,-7.58
2022-12-18T07:21:26.122Z,-7.62
2022-12-18T07:22:07.770Z,-8.12
2022-12-18T07:22:54.708Z,-7.79
2022-12-18T07:23:38.519Z,-7.62
2022-12-18T07:24:20.413Z,-7.81
2022-12-18T07:25:02.035Z,-7.84
2022-12-18T07:25:43.669Z,-7.63
2022-12-18T07:26:25.273Z,-7.65
2022-12-18T07:27:06.914Z,-7.66
2022-12-18T07:27:49.638Z,-7.71
2022-12-18T07:28:33.257Z,-7.67
2022-12-18T07:29:14.912Z,-7.65
2022-12-18T07:29:56.632Z,-7.84
2022-12-18T07:30:39.303Z,-7.82
2022-12-18T07:31:22.512Z,-7.78
2022-12-18T07:32:04.424Z,-7.65
2022-12-18T07:32:46.137Z,-7.81
2022-12-18T07:33:30.874Z,-7.86
2022-12-18T07:34:14.064Z,-7.88
2022-12-18T07:34:55.700Z,-8.77
2022-12-18T07:35:37.395Z,-7.61
2022-12-18T07:36:19.977Z,-7.94
2022-12-18T07:37:04.617Z,-7.91
2022-12-18T07:37:46.568Z,-8.01
2022-12-18T07:38:28.254Z,-7.52
2022-12-18T07:39:12.015Z,-7.48
2022-12-18T07:39:53.626Z,-7.54
2022-12-18T07:40:35.164Z,-7.53
2022-12-18T07:41:16.986Z,-7.36
2022-12-18T07:42:18.512Z,-7.33
2022-12-18T07:43:00.131Z,-7.34
2022-12-18T07:43:43.085Z,-7.33
2022-12-18T07:44:25.001Z,-7.35
2022-12-18T07:45:07.083Z,-7.34
2022-12-18T07:45:51.583Z,-7.47
2022-12-18T07:46:33.173Z,-7.39
2022-12-18T07:47:14.799Z,-7.41
2022-12-18T07:47:56.448Z,-7.55
2022-12-18T07:48:38.071Z,-7.49
2022-12-18T07:49:19.660Z,-7.45
2022-12-18T07:50:01.317Z,-7.82
2022-12-18T07:50:42.938Z,-7.47
2022-12-18T07:51:24.640Z,-7.51
2022-12-18T07:52:06.237Z,-7.46
2022-12-18T07:52:47.847Z,-7.46
2022-12-18T07:53:29.575Z,-7.46
2022-12-18T07:54:11.190Z,-7.85
2022-12-18T07:54:52.895Z,-7.70
2022-12-18T07:55:59.950Z,-7.58
2022-12-18T07:56:36.313Z,-7.65
2022-12-18T07:57:48.461Z,-7.49
2022-12-18T07:58:20.437Z,-7.54
2022-12-18T07:59:04.859Z,-7.53
2022-12-18T07:59:46.895Z,-7.63
2022-12-18T08:00:28.861Z,-7.39
2022-12-18T08:01:12.539Z,-7.78
2022-12-18T08:01:54.357Z,-7.73
2022-12-18T08:02:36.303Z,-7.31
2022-12-18T08:03:17.997Z,-7.70
2022-12-18T08:03:59.811Z,-7.35
2022-12-18T08:04:41.574Z,-7.39
2022-12-18T08:05:23.400Z,-7.64
2022-12-18T08:06:08.011Z,-7.37
2022-12-18T08:06:49.602Z,-7.39
2022-12-18T08:07:31.239Z,-7.37
2022-12-18T08:08:13.371Z,-7.36
2022-12-18T08:08:56.640Z,-7.35
2022-12-18T08:09:38.247Z,-7.44
2022-12-18T08:10:20.909Z,-7.36
2022-12-18T08:11:03.319Z,-7.27
2022-12-18T08:11:45.007Z,-7.27
2022-12-18T08:12:26.652Z,-7.25
2022-12-18T08:13:08.253Z,-7.25
2022-12-18T08:13:49.891Z,-7.27
2022-12-18T08:14:31.617Z,-7.44
2022-12-18T08:15:13.335Z,-7.30
2022-12-18T08:16:03.250Z,-7.38
2022-12-18T08:16:44.994Z,-7.31
2022-12-18T08:17:26.683Z,-7.33
2022-12-18T08:18:13.899Z,-7.28
2022-12-18T08:18:56.054Z,-7.44
2022-12-18T08:19:37.648Z,-7.36
2022-12-18T08:20:19.381Z,-7.27
2022-12-18T08:21:16.004Z,-7.15
2022-12-18T08:21:57.887Z,-7.12
2022-12-18T08:22:39.957Z,-7.30
2022-12-18T08:23:21.840Z,-7.08
2022-12-18T08:24:03.899Z,-7.05
2022-12-18T08:24:46.057Z,-7.10
2022-12-18T08:25:27.797Z,-7.15
2022-12-18T08:26:10.471Z,-7.05
2022-12-18T08:27:20.943Z,-7.17
2022-12-18T08:27:54.725Z,-7.20
2022-12-18T08:28:36.701Z,-6.96
2022-12-18T08:29:21.553Z,-6.91
2022-12-18T08:30:04.777Z,-7.02
2022-12-18T08:30:52.963Z,-6.93
2022-12-18T08:31:35.274Z,-6.83
2022-12-18T08:32:17.057Z,-6.86
2022-12-18T08:32:59.093Z,-6.70
2022-12-18T08:33:41.865Z,-6.69
2022-12-18T08:34:23.926Z,-6.84
2022-12-18T08:35:05.982Z,-6.67
2022-12-18T08:35:47.551Z,-6.69
2022-12-18T08:36:29.439Z,-6.83
2022-12-18T08:37:11.090Z,-6.71
2022-12-18T08:37:52.785Z,-6.81
2022-12-18T08:38:34.673Z,-6.72
2022-12-18T08:39:16.291Z,-6.80
2022-12-18T08:39:58.322Z,-6.60
2022-12-18T08:40:40.028Z,-6.57
2022-12-18T08:41:22.119Z,-6.53
2022-12-18T08:42:22.463Z,-7.02
2022-12-18T08:43:22.474Z,-6.61
2022-12-18T08:44:22.586Z,-6.62
2022-12-18T08:45:04.813Z,-6.37
2022-12-18T08:45:46.469Z,-6.35
2022-12-18T08:46:33.826Z,-6.44
2022-12-18T08:47:15.636Z,-6.39
2022-12-18T08:47:57.326Z,-6.35
2022-12-18T08:48:38.959Z,-6.30
2022-12-18T08:49:20.577Z,-6.24
2022-12-18T08:50:02.226Z,-6.20
2022-12-18T08:50:43.883Z,-6.32
2022-12-18T08:51:25.556Z,-6.20
2022-12-18T08:52:07.334Z,-6.85
2022-12-18T08:52:48.996Z,-6.35
2022-12-18T08:53:35.463Z,-6.09
2022-12-18T08:54:17.732Z,-6.35
2022-12-18T08:54:59.291Z,-6.13
2022-12-18T08:55:43.570Z,-6.13
2022-12-18T08:56:28.950Z,-6.13
2022-12-18T08:57:10.610Z,-6.11
2022-12-18T08:57:52.302Z,-6.24
2022-12-18T08:58:34.023Z,-6.42
2022-12-18T08:59:19.455Z,-6.19
2022-12-18T09:00:01.801Z,-6.03
2022-12-18T09:00:43.506Z,-6.05
2022-12-18T09:01:25.244Z,-6.24
2022-12-18T09:02:07.087Z,-6.30
2022-12-18T09:02:48.929Z,-6.25
2022-12-18T09:03:31.334Z,-6.25
2022-12-18T09:04:13.388Z,-5.94
2022-12-18T09:04:57.530Z,-6.10
2022-12-18T09:05:39.562Z,-5.84
2022-12-18T09:06:23.009Z,-5.77
2022-12-18T09:07:04.580Z,-6.09
2022-12-18T09:07:46.190Z,-5.84
2022-12-18T09:08:28.516Z,-6.00
2022-12-18T09:09:10.768Z,-6.06
2022-12-18T09:09:52.447Z,-5.91
2022-12-18T09:10:37.651Z,-6.14
2022-12-18T09:11:28.796Z,-5.78
2022-12-18T09:12:11.068Z,-5.77
2022-12-18T09:12:52.695Z,-5.80
2022-12-18T09:13:34.277Z,-5.51
2022-12-18T09:14:15.932Z,-5.87
2022-12-18T09:14:57.670Z,-5.43
2022-12-18T09:15:57.310Z,-5.54
2022-12-18T09:16:39.150Z,-5.53
2022-12-18T09:17:20.869Z,-5.35
2022-12-18T09:18:02.515Z,-5.50
2022-12-18T09:18:44.236Z,-5.41
2022-12-18T09:19:25.874Z,-5.30
2022-12-18T09:20:08.165Z,-5.16
2022-12-18T09:20:51.179Z,-5.36
2022-12-18T09:21:36.055Z,-5.63
2022-12-18T09:22:19.032Z,-5.10
2022-12-18T09:23:00.675Z,-5.73
2022-12-18T09:23:42.902Z,-5.09
2022-12-18T09:24:24.522Z,-5.56
2022-12-18T09:25:08.997Z,-5.20
2022-12-18T09:25:50.681Z,-5.04
2022-12-18T09:26:32.490Z,-4.98
2022-12-18T09:27:14.106Z,-4.98
2022-12-18T09:27:55.754Z,-5.04
2022-12-18T09:28:37.637Z,-5.35
2022-12-18T09:29:19.395Z,-5.06
2022-12-18T09:30:01.533Z,-5.04
2022-12-18T09:30:47.694Z,-4.87
2022-12-18T09:31:29.483Z,-4.89
2022-12-18T09:32:11.210Z,-5.02
2022-12-18T09:32:56.073Z,-4.82
2022-12-18T09:33:38.070Z,-4.71
2022-12-18T09:34:21.981Z,-4.66
2022-12-18T09:35:04.375Z,-4.71
2022-12-18T09:35:46.884Z,-4.70
2022-12-18T09:36:28.606Z,-4.70
2022-12-18T09:37:10.408Z,-4.53
2022-12-18T09:37:52.051Z,-4.57